Time;durP1;ratioP1;P1;durP2;ratioP2;P2;SDS_P1;SDS_P2;PMS_P1;PMS_P2;Temp;Humidity;BMP_temperature;BMP_pressure;BME280_temperature;BME280_humidity;BME280_pressure;Samples;Min_cycle;Max_cycle;Signal;HPM_P1;HPM_P2
2023/10/26 00:02:06;;;;;;;;;;;;;;;;;;5133292;27;20367;-46
2023/10/26 00:04:31;;;;;;;;;;;;;;;;;;5134801;27;19932;-43
2023/10/26 00:06:57;;;;;;;;;;;;;;;;;;5134218;27;19927;-43
2023/10/26 00:09:22;;;;;;;;;;;;;;;;;;5132635;27;20038;-46
2023/10/26 00:11:48;;;;;;;;;;;;;;;;;;5133648;27;19957;-44
2023/10/26 00:14:13;;;;;;;;;;;;;;;;;;5134421;27;20251;-44
2023/10/26 00:16:39;;;;;;;;;;;;;;;;;;5133224;27;19934;-44
2023/10/26 00:19:04;;;;;;;;;;;;;;;;;;5132494;27;19930;-44
2023/10/26 00:21:30;;;;;;;;;;;;;;;;;;5133844;27;20744;-46
2023/10/26 00:23:55;;;;;;;;;;;;;;;;;;5132921;27;20495;-44
2023/10/26 00:26:21;;;;;;;;;;;;;;;;;;5134249;27;20277;-45
2023/10/26 00:28:46;;;;;;;;;;;;;;;;;;5132084;27;19931;-44
2023/10/26 00:31:11;;;;;;;;;;;;;;;;;;5132979;27;19930;-47
2023/10/26 00:33:37;;;;;;;;;;;;;;;;;;5133199;27;19966;-44
2023/10/26 00:36:02;;;;;;;;;;;;;;;;;;5133612;27;19927;-48
2023/10/26 00:38:28;;;;;;;;;;;;;;;;;;5133230;27;20057;-46
2023/10/26 00:40:53;;;;;;;;;;;;;;;;;;5130548;27;19938;-46
2023/10/26 00:43:20;;;;;;;;;;;;;;;;;;5131779;27;20542;-44
2023/10/26 00:45:45;;;;;;;;;;;;;;;;;;5132602;27;20056;-45
2023/10/26 00:48:10;;;;;;;;;;;;;;;;;;5133538;27;20014;-47
2023/10/26 00:50:36;;;;;;;;;;;;;;;;;;5133783;27;19937;-47
2023/10/26 00:53:02;;;;;;;;;;;;;;;;;;5132184;27;19931;-45
2023/10/26 00:55:27;;;;;;;;;;;;;;;;;;5132656;27;20042;-44
2023/10/26 00:57:53;;;;;;;;;;;;;;;;;;5132655;27;19943;-45
2023/10/26 01:00:18;;;;;;;;;;;;;;;;;;5133856;27;20287;-44
2023/10/26 01:02:44;;;;;;;;;;;;;;;;;;5131836;27;19931;-45
2023/10/26 01:05:09;;;;;;;;;;;;;;;;;;5132061;27;20423;-45
2023/10/26 01:07:34;;;;;;;;;;;;;;;;;;5133162;27;20294;-45
2023/10/26 01:10:00;;;;;;;;;;;;;;;;;;5133334;27;20426;-44
2023/10/26 01:12:25;;;;;;;;;;;;;;;;;;5132453;27;20029;-45
2023/10/26 01:14:51;;;;;;;;;;;;;;;;;;5130615;27;19979;-44
2023/10/26 01:17:16;;;;;;;;;;;;;;;;;;5132659;27;19935;-44
2023/10/26 01:19:42;;;;;;;;;;;;;;;;;;5132631;27;19927;-45
2023/10/26 01:22:07;;;;;;;;;;;;;;;;;;5131443;27;20351;-44
2023/10/26 01:24:33;;;;;;;;;;;;;;;;;;5132222;27;19931;-47
2023/10/26 01:26:58;;;;;;;;;;;;;;;;;;5131597;27;19928;-44
2023/10/26 01:29:23;;;;;;;;;;;;;;;;;;5132304;27;19953;-45
2023/10/26 01:31:49;;;;;;;;;;;;;;;;;;5132581;27;19937;-45
2023/10/26 01:34:14;;;;;;;;;;;;;;;;;;5132582;27;19944;-45
2023/10/26 01:36:40;;;;;;;;;;;;;;;;;;5131865;27;20021;-45
2023/10/26 01:39:05;;;;;;;;;;;;;;;;;;5130758;27;19927;-44
2023/10/26 01:41:31;;;;;;;;;;;;;;;;;;5132686;27;20293;-44
2023/10/26 01:43:56;;;;;;;;;;;;;;;;;;5132038;27;19927;-46
2023/10/26 01:46:22;;;;;;;;;;;;;;;;;;5131788;27;19928;-46
2023/10/26 01:48:47;;;;;;;;;;;;;;;;;;5131868;27;20509;-45
2023/10/26 01:51:13;;;;;;;;;;;;;;;;;;5131706;27;19931;-45
2023/10/26 01:53:40;;;;;;;;;;;;;;;;;;5131907;27;20318;-44
2023/10/26 01:56:05;;;;;;;;;;;;;;;;;;5132112;27;20427;-46
2023/10/26 01:58:31;;;;;;;;;;;;;;;;;;5130605;27;19934;-44
2023/10/26 02:00:56;;;;;;;;;;;;;;;;;;5130751;27;20002;-44
2023/10/26 02:03:21;;;;;;;;;;;;;;;;;;5131681;27;19994;-46
2023/10/26 02:05:47;;;;;;;;;;;;;;;;;;5132651;27;20022;-44
2023/10/26 02:08:13;;;;;;;;;;;;;;;;;;5131250;27;20440;-44
2023/10/26 02:10:41;;;;;;;;;;;;;;;;;;5132370;27;20018;-46
2023/10/26 02:13:06;;;;;;;;;;;;;;;;;;5130487;27;20068;-45
2023/10/26 02:15:32;;;;;;;;;;;;;;;;;;5132004;27;19931;-45
2023/10/26 02:17:57;;;;;;;;;;;;;;;;;;5130853;27;20031;-45
2023/10/26 02:20:22;;;;;;;;;;;;;;;;;;5132732;27;20234;-45
2023/10/26 02:22:48;;;;;;;;;;;;;;;;;;5131412;27;19931;-43
2023/10/26 02:25:14;;;;;;;;;;;;;;;;;;5132705;27;20022;-45
2023/10/26 02:27:39;;;;;;;;;;;;;;;;;;5131327;27;19975;-44
2023/10/26 02:30:05;;;;;;;;;;;;;;;;;;5131466;27;20826;-44
2023/10/26 02:32:31;;;;;;;;;;;;;;;;;;5131693;27;19943;-46
2023/10/26 02:34:57;;;;;;;;;;;;;;;;;;5130280;27;19950;-45
2023/10/26 02:37:22;;;;;;;;;;;;;;;;;;5132070;27;20353;-44
2023/10/26 02:39:48;;;;;;;;;;;;;;;;;;5130535;27;19962;-44
2023/10/26 02:42:13;;;;;;;;;;;;;;;;;;5130784;27;20010;-45
2023/10/26 02:44:39;;;;;;;;;;;;;;;;;;5131595;27;19928;-44
2023/10/26 02:47:04;;;;;;;;;;;;;;;;;;5129933;27;20609;-45
2023/10/26 02:49:30;;;;;;;;;;;;;;;;;;5132057;27;20026;-47
2023/10/26 02:51:56;;;;;;;;;;;;;;;;;;5130782;27;20411;-45
2023/10/26 02:54:21;;;;;;;;;;;;;;;;;;5131872;27;20364;-44
2023/10/26 02:56:47;;;;;;;;;;;;;;;;;;5130467;27;19923;-46
2023/10/26 02:59:12;;;;;;;;;;;;;;;;;;5130228;27;19934;-44
2023/10/26 03:01:38;;;;;;;;;;;;;;;;;;5130679;27;21049;-45
2023/10/26 03:04:03;;;;;;;;;;;;;;;;;;5132817;27;19931;-44
2023/10/26 03:06:29;;;;;;;;;;;;;;;;;;5134475;27;20024;-47
2023/10/26 03:08:54;;;;;;;;;;;;;;;;;;5133838;27;19933;-45
2023/10/26 03:11:20;;;;;;;;;;;;;;;;;;5134337;27;20072;-45
2023/10/26 03:13:45;;;;;;;;;;;;;;;;;;5134457;27;19924;-44
2023/10/26 03:16:11;;;;;;;;;;;;;;;;;;5135701;27;20058;-49
2023/10/26 03:18:36;;;;;;;;;;;;;;;;;;5133858;27;21011;-46
2023/10/26 03:21:01;;;;;;;;;;;;;;;;;;5134415;27;20001;-44
2023/10/26 03:23:27;;;;;;;;;;;;;;;;;;5134360;27;19934;-47
2023/10/26 03:25:52;;;;;;;;;;;;;;;;;;5134654;27;20302;-44
2023/10/26 03:28:18;;;;;;;;;;;;;;;;;;5133470;27;20286;-46
2023/10/26 03:30:43;;;;;;;;;;;;;;;;;;5134688;27;19923;-46
2023/10/26 03:33:09;;;;;;;;;;;;;;;;;;5133969;27;19928;-47
2023/10/26 03:35:36;;;;;;;;;;;;;;;;;;5135026;27;20311;-44
2023/10/26 03:38:01;;;;;;;;;;;;;;;;;;5133590;27;19976;-46
2023/10/26 03:40:27;;;;;;;;;;;;;;;;;;5133643;27;19931;-47
2023/10/26 03:42:52;;;;;;;;;;;;;;;;;;5133074;27;19934;-44
2023/10/26 03:45:18;;;;;;;;;;;;;;;;;;5134516;27;20359;-44
2023/10/26 03:47:43;;;;;;;;;;;;;;;;;;5134824;27;20066;-46
2023/10/26 03:50:09;;;;;;;;;;;;;;;;;;5133378;27;19937;-44
2023/10/26 03:52:34;;;;;;;;;;;;;;;;;;5133281;27;20057;-44
2023/10/26 03:55:00;;;;;;;;;;;;;;;;;;5133968;27;20014;-45
2023/10/26 03:57:25;;;;;;;;;;;;;;;;;;5133921;27;19951;-44
2023/10/26 03:59:51;;;;;;;;;;;;;;;;;;5133868;27;19927;-44
2023/10/26 04:02:16;;;;;;;;;;;;;;;;;;5132425;27;20268;-46
2023/10/26 04:04:42;;;;;;;;;;;;;;;;;;5134202;27;20098;-46
2023/10/26 04:07:08;;;;;;;;;;;;;;;;;;5133795;27;19970;-46
2023/10/26 04:09:33;;;;;;;;;;;;;;;;;;5133329;27;20352;-44
2023/10/26 04:11:58;;;;;;;;;;;;;;;;;;5133493;27;20022;-45
2023/10/26 04:14:24;;;;;;;;;;;;;;;;;;5133793;27;19930;-46
2023/10/26 04:16:50;;;;;;;;;;;;;;;;;;5133897;27;20006;-45
2023/10/26 04:19:15;;;;;;;;;;;;;;;;;;5132517;27;19934;-46
2023/10/26 04:21:41;;;;;;;;;;;;;;;;;;5134260;27;20511;-44
2023/10/26 04:24:06;;;;;;;;;;;;;;;;;;5132905;27;20298;-46
2023/10/26 04:26:32;;;;;;;;;;;;;;;;;;5133367;27;20321;-45
2023/10/26 04:28:57;;;;;;;;;;;;;;;;;;5133233;27;19983;-44
2023/10/26 04:31:23;;;;;;;;;;;;;;;;;;5133884;27;19980;-44
2023/10/26 04:33:48;;;;;;;;;;;;;;;;;;5133065;27;19931;-45
2023/10/26 04:36:14;;;;;;;;;;;;;;;;;;5133404;27;19931;-43
2023/10/26 04:38:39;;;;;;;;;;;;;;;;;;5132729;27;20102;-44
2023/10/26 04:41:05;;;;;;;;;;;;;;;;;;5133472;27;20025;-47
2023/10/26 04:43:31;;;;;;;;;;;;;;;;;;5132967;27;19937;-45
2023/10/26 04:45:56;;;;;;;;;;;;;;;;;;5132726;27;20123;-44
2023/10/26 04:48:21;;;;;;;;;;;;;;;;;;5132926;27;20306;-46
2023/10/26 04:50:47;;;;;;;;;;;;;;;;;;5132629;27;19931;-44
2023/10/26 04:53:12;;;;;;;;;;;;;;;;;;5133401;27;19935;-44
2023/10/26 04:55:38;;;;;;;;;;;;;;;;;;5132754;27;19931;-44
2023/10/26 04:58:03;;;;;;;;;;;;;;;;;;5131950;27;20038;-45
2023/10/26 05:00:29;;;;;;;;;;;;;;;;;;5132977;27;19923;-46
2023/10/26 05:02:55;;;;;;;;;;;;;;;;;;5131551;27;19934;-47
2023/10/26 05:05:20;;;;;;;;;;;;;;;;;;5131808;27;19931;-45
2023/10/26 05:07:46;;;;;;;;;;;;;;;;;;5129267;27;20304;-45
2023/10/26 05:10:11;;;;;;;;;;;;;;;;;;5129506;27;19946;-47
2023/10/26 05:12:37;;;;;;;;;;;;;;;;;;5131430;27;19988;-47
2023/10/26 05:15:03;;;;;;;;;;;;;;;;;;5130678;27;22277;-46
2023/10/26 05:17:30;;;;;;;;;;;;;;;;;;5130982;27;20395;-44
2023/10/26 05:19:56;;;;;;;;;;;;;;;;;;5129451;27;19931;-45
2023/10/26 05:22:21;;;;;;;;;;;;;;;;;;5131677;27;20026;-45
2023/10/26 05:24:47;;;;;;;;;;;;;;;;;;5131730;27;19931;-47
2023/10/26 05:27:12;;;;;;;;;;;;;;;;;;5131035;27;20022;-43
2023/10/26 05:29:38;;;;;;;;;;;;;;;;;;5129823;27;19962;-48
2023/10/26 05:32:03;;;;;;;;;;;;;;;;;;5130210;27;19933;-44
2023/10/26 05:34:29;;;;;;;;;;;;;;;;;;5131068;27;19927;-47
2023/10/26 05:36:54;;;;;;;;;;;;;;;;;;5131169;27;20053;-44
2023/10/26 05:39:20;;;;;;;;;;;;;;;;;;5130108;27;19931;-47
2023/10/26 05:41:45;;;;;;;;;;;;;;;;;;5129291;27;19927;-44
2023/10/26 05:44:10;;;;;;;;;;;;;;;;;;5131635;27;19928;-46
2023/10/26 05:46:36;;;;;;;;;;;;;;;;;;5129105;27;20455;-48
2023/10/26 05:49:02;;;;;;;;;;;;;;;;;;5127290;27;19941;-45
2023/10/26 05:51:27;;;;;;;;;;;;;;;;;;5126170;27;20718;-44
2023/10/26 05:53:53;;;;;;;;;;;;;;;;;;5125482;27;20585;-45
2023/10/26 05:56:18;;;;;;;;;;;;;;;;;;5123797;27;20358;-44
2023/10/26 05:58:44;;;;;;;;;;;;;;;;;;5119547;27;19941;-44
2023/10/26 06:01:09;;;;;;;;;;;;;;;;;;5123662;27;19927;-46
2023/10/26 06:03:35;;;;;;;;;;;;;;;;;;5120204;27;20521;-44
2023/10/26 06:06:00;;;;;;;;;;;;;;;;;;5119185;27;19927;-44
2023/10/26 06:08:26;;;;;;;;;;;;;;;;;;5124485;27;19931;-44
2023/10/26 06:10:52;;;;;;;;;;;;;;;;;;5124375;27;19932;-45
2023/10/26 06:13:17;;;;;;;;;;;;;;;;;;5128802;27;19931;-45
2023/10/26 06:15:42;;;;;;;;;;;;;;;;;;5127769;27;19923;-45
2023/10/26 06:18:09;;;;;;;;;;;;;;;;;;5129461;27;20022;-45
2023/10/26 06:20:35;;;;;;;;;;;;;;;;;;5124294;27;19927;-45
2023/10/26 06:23:00;;;;;;;;;;;;;;;;;;5123765;27;20021;-44
2023/10/26 06:25:28;;;;;;;;;;;;;;;;;;5127287;27;19932;-47
2023/10/26 06:27:53;;;;;;;;;;;;;;;;;;5126173;27;20427;-44
2023/10/26 06:30:19;;;;;;;;;;;;;;;;;;5128704;27;19927;-47
2023/10/26 06:32:44;;;;;;;;;;;;;;;;;;5127503;27;19931;-45
2023/10/26 06:35:10;;;;;;;;;;;;;;;;;;5125019;27;20037;-45
2023/10/26 06:37:35;;;;;;;;;;;;;;;;;;5129177;27;19938;-44
2023/10/26 06:40:01;;;;;;;;;;;;;;;;;;5131942;27;20525;-46
2023/10/26 06:42:26;;;;;;;;;;;;;;;;;;5127414;27;19934;-47
2023/10/26 06:44:52;;;;;;;;;;;;;;;;;;5128959;27;20352;-46
2023/10/26 06:47:17;;;;;;;;;;;;;;;;;;5129105;27;19931;-47
2023/10/26 06:49:43;;;;;;;;;;;;;;;;;;5127291;27;20022;-46
2023/10/26 06:52:09;;;;;;;;;;;;;;;;;;5119792;27;20600;-43
2023/10/26 06:54:34;;;;;;;;;;;;;;;;;;5119841;27;20466;-46
2023/10/26 06:57:01;;;;;;;;;;;;;;;;;;5104296;27;19931;-46
2023/10/26 06:59:26;;;;;;;;;;;;;;;;;;5117982;27;20609;-43
2023/10/26 07:01:53;;;;;;;;;;;;;;;;;;5104009;27;19935;-43
2023/10/26 07:04:34;;;;;;;;;;;;;;;;;;5105011;27;20621;-45
2023/10/26 07:06:59;;;;;;;;;;;;;;;;;;5100938;27;19938;-45
2023/10/26 07:09:25;;;;;;;;;;;;;;;;;;5105784;27;20546;-43
2023/10/26 07:11:51;;;;;;;;;;;;;;;;;;5113787;27;19935;-43
2023/10/26 07:14:16;;;;;;;;;;;;;;;;;;5098138;27;19931;-45
2023/10/26 07:16:42;;;;;;;;;;;;;;;;;;5116008;27;20376;-44
2023/10/26 07:19:07;;;;;;;;;;;;;;;;;;5118220;27;20553;-45
2023/10/26 07:21:34;;;;;;;;;;;;;;;;;;5119431;27;19927;-46
2023/10/26 07:23:59;;;;;;;;;;;;;;;;;;5121031;27;19931;-45
2023/10/26 07:26:25;;;;;;;;;;;;;;;;;;5125455;27;20965;-46
2023/10/26 07:28:50;;;;;;;;;;;;;;;;;;5127958;27;20018;-45
2023/10/26 07:31:16;;;;;;;;;;;;;;;;;;5128333;27;20051;-46
2023/10/26 07:33:41;;;;;;;;;;;;;;;;;;5126541;27;20689;-43
2023/10/26 07:36:07;;;;;;;;;;;;;;;;;;5126325;27;19931;-44
2023/10/26 07:38:34;;;;;;;;;;;;;;;;;;5125723;27;19935;-43
2023/10/26 07:41:03;;;;;;;;;;;;;;;;;;5128603;27;19928;-46
2023/10/26 07:43:29;;;;;;;;;;;;;;;;;;5125879;27;20579;-45
2023/10/26 07:45:55;;;;;;;;;;;;;;;;;;5128711;27;20394;-45
2023/10/26 07:48:20;;;;;;;;;;;;;;;;;;5124167;27;19931;-44
2023/10/26 07:50:45;;;;;;;;;;;;;;;;;;5128073;27;19934;-45
2023/10/26 07:53:11;;;;;;;;;;;;;;;;;;5127492;27;20194;-45
2023/10/26 07:55:37;;;;;;;;;;;;;;;;;;5125715;27;20023;-44
2023/10/26 07:58:02;;;;;;;;;;;;;;;;;;5123965;27;19931;-44
2023/10/26 08:00:28;;;;;;;;;;;;;;;;;;5124762;27;19931;-46
2023/10/26 08:02:53;;;;;;;;;;;;;;;;;;5118729;27;20317;-44
2023/10/26 08:05:19;;;;;;;;;;;;;;;;;;5095308;27;20752;-43
2023/10/26 08:07:47;;;;;;;;;;;;;;;;;;5110885;27;20525;-44
2023/10/26 08:10:12;;;;;;;;;;;;;;;;;;5122571;27;19927;-45
2023/10/26 08:12:38;;;;;;;;;;;;;;;;;;5119450;27;19930;-44
2023/10/26 08:15:04;;;;;;;;;;;;;;;;;;5126702;27;19935;-43
2023/10/26 08:17:49;;;;;;;;;;;;;;;;;;5112312;27;20597;-45
2023/10/26 08:20:15;;;;;;;;;;;;;;;;;;5118543;27;19931;-45
2023/10/26 08:22:40;;;;;;;;;;;;;;;;;;5128891;27;20062;-46
2023/10/26 08:25:06;;;;;;;;;;;;;;;;;;5120631;27;19930;-45
2023/10/26 08:27:31;;;;;;;;;;;;;;;;;;5128065;27;19946;-46
2023/10/26 08:29:57;;;;;;;;;;;;;;;;;;5127473;27;19927;-47
2023/10/26 08:32:22;;;;;;;;;;;;;;;;;;5111722;27;19931;-43
2023/10/26 08:34:48;;;;;;;;;;;;;;;;;;5109364;27;19931;-45
2023/10/26 08:37:14;;;;;;;;;;;;;;;;;;5112077;27;19952;-45
2023/10/26 08:39:39;;;;;;;;;;;;;;;;;;5107674;27;20231;-44
2023/10/26 08:42:05;;;;;;;;;;;;;;;;;;5103941;27;19935;-44
2023/10/26 08:44:31;;;;;;;;;;;;;;;;;;5105526;27;20414;-44
2023/10/26 08:46:56;;;;;;;;;;;;;;;;;;5109559;27;20151;-44
2023/10/26 08:49:22;;;;;;;;;;;;;;;;;;5111097;27;19976;-44
2023/10/26 08:51:47;;;;;;;;;;;;;;;;;;5115433;27;20284;-44
2023/10/26 08:54:13;;;;;;;;;;;;;;;;;;5096862;27;19938;-44
2023/10/26 08:56:38;;;;;;;;;;;;;;;;;;5116915;27;19938;-44
2023/10/26 08:59:04;;;;;;;;;;;;;;;;;;5086059;27;19934;-44
2023/10/26 09:01:30;;;;;;;;;;;;;;;;;;5112548;27;20292;-43
2023/10/26 09:03:55;;;;;;;;;;;;;;;;;;5116726;27;19977;-44
2023/10/26 09:06:21;;;;;;;;;;;;;;;;;;5117630;27;19961;-45
2023/10/26 09:08:46;;;;;;;;;;;;;;;;;;5102743;27;19927;-43
2023/10/26 09:11:12;;;;;;;;;;;;;;;;;;5114410;27;20014;-44
2023/10/26 09:13:37;;;;;;;;;;;;;;;;;;5121178;27;19938;-45
2023/10/26 09:16:03;;;;;;;;;;;;;;;;;;5121031;27;20307;-45
2023/10/26 09:18:28;;;;;;;;;;;;;;;;;;5120457;27;20299;-43
2023/10/26 09:20:54;;;;;;;;;;;;;;;;;;5115461;27;19938;-44
2023/10/26 09:23:19;;;;;;;;;;;;;;;;;;5115289;27;19969;-45
2023/10/26 09:25:45;;;;;;;;;;;;;;;;;;5116712;27;20031;-45
2023/10/26 09:28:10;;;;;;;;;;;;;;;;;;5114522;27;19954;-43
2023/10/26 09:30:39;;;;;;;;;;;;;;;;;;5117658;27;19942;-45
2023/10/26 09:33:04;;;;;;;;;;;;;;;;;;5106698;27;20149;-44
2023/10/26 09:35:30;;;;;;;;;;;;;;;;;;5093534;27;19966;-44
2023/10/26 09:37:56;;;;;;;;;;;;;;;;;;5079603;27;19931;-44
2023/10/26 09:40:21;;;;;;;;;;;;;;;;;;5082873;27;20087;-44
2023/10/26 09:42:47;;;;;;;;;;;;;;;;;;5077361;27;20652;-43
2023/10/26 09:45:12;;;;;;;;;;;;;;;;;;5070557;27;20205;-44
2023/10/26 09:47:38;;;;;;;;;;;;;;;;;;5088783;27;21176;-44
2023/10/26 09:50:04;;;;;;;;;;;;;;;;;;5090226;27;20795;-43
2023/10/26 09:52:30;;;;;;;;;;;;;;;;;;5104909;27;19934;-44
2023/10/26 09:54:55;;;;;;;;;;;;;;;;;;5107644;27;20194;-44
2023/10/26 09:57:21;;;;;;;;;;;;;;;;;;5099198;27;20904;-45
2023/10/26 09:59:46;;;;;;;;;;;;;;;;;;5106723;27;20811;-44
2023/10/26 10:02:12;;;;;;;;;;;;;;;;;;5106587;27;19927;-46
2023/10/26 10:04:38;;;;;;;;;;;;;;;;;;5110358;27;19931;-44
2023/10/26 10:07:03;;;;;;;;;;;;;;;;;;5103362;27;20342;-46
2023/10/26 10:09:29;;;;;;;;;;;;;;;;;;5082560;27;19927;-49
2023/10/26 10:11:54;;;;;;;;;;;;;;;;;;5105041;27;20263;-45
2023/10/26 10:14:20;;;;;;;;;;;;;;;;;;5113734;27;19933;-45
2023/10/26 10:16:46;;;;;;;;;;;;;;;;;;5113824;27;19975;-44
2023/10/26 10:19:12;;;;;;;;;;;;;;;;;;5113673;27;19935;-45
2023/10/26 10:21:38;;;;;;;;;;;;;;;;;;5115259;27;20131;-46
2023/10/26 10:24:03;;;;;;;;;;;;;;;;;;5112906;27;20578;-43
2023/10/26 10:26:29;;;;;;;;;;;;;;;;;;5114534;27;19937;-46
2023/10/26 10:28:54;;;;;;;;;;;;;;;;;;5116089;27;19935;-45
2023/10/26 10:31:21;;;;;;;;;;;;;;;;;;5113269;27;19931;-47
2023/10/26 10:33:47;;;;;;;;;;;;;;;;;;5123739;27;20065;-45
2023/10/26 10:36:12;;;;;;;;;;;;;;;;;;5122554;27;19931;-47
2023/10/26 10:38:37;;;;;;;;;;;;;;;;;;5110533;27;20700;-43
2023/10/26 10:41:05;;;;;;;;;;;;;;;;;;5098107;27;19931;-44
2023/10/26 10:43:34;;;;;;;;;;;;;;;;;;5094519;27;19927;-44
2023/10/26 10:45:59;;;;;;;;;;;;;;;;;;5093916;27;20065;-47
2023/10/26 10:48:25;;;;;;;;;;;;;;;;;;5108262;27;20093;-45
2023/10/26 10:50:50;;;;;;;;;;;;;;;;;;5118099;27;19930;-45
2023/10/26 10:53:16;;;;;;;;;;;;;;;;;;5122496;27;20023;-45
2023/10/26 10:55:41;;;;;;;;;;;;;;;;;;5127501;27;19927;-45
2023/10/26 10:58:07;;;;;;;;;;;;;;;;;;5127130;27;19927;-44
2023/10/26 11:00:32;;;;;;;;;;;;;;;;;;5129225;27;19931;-47
2023/10/26 11:02:58;;;;;;;;;;;;;;;;;;5122702;27;19971;-44
2023/10/26 11:05:23;;;;;;;;;;;;;;;;;;5125344;27;19938;-45
2023/10/26 11:07:49;;;;;;;;;;;;;;;;;;5121600;27;21077;-45
2023/10/26 11:10:15;;;;;;;;;;;;;;;;;;5129342;27;20040;-45
2023/10/26 11:12:40;;;;;;;;;;;;;;;;;;5131501;27;19931;-44
2023/10/26 11:15:07;;;;;;;;;;;;;;;;;;5130088;27;20366;-45
2023/10/26 11:17:33;;;;;;;;;;;;;;;;;;5131023;27;20023;-44
2023/10/26 11:19:58;;;;;;;;;;;;;;;;;;5125640;27;19931;-44
2023/10/26 11:22:23;;;;;;;;;;;;;;;;;;5127016;27;20019;-45
2023/10/26 11:24:49;;;;;;;;;;;;;;;;;;5125132;27;19939;-45
2023/10/26 11:27:15;;;;;;;;;;;;;;;;;;5113933;27;20645;-44
2023/10/26 11:29:41;;;;;;;;;;;;;;;;;;5112821;27;20014;-44
2023/10/26 11:32:06;;;;;;;;;;;;;;;;;;5114790;27;19927;-44
2023/10/26 11:34:32;;;;;;;;;;;;;;;;;;5112200;27;19931;-46
2023/10/26 11:36:57;;;;;;;;;;;;;;;;;;5114660;27;19934;-44
2023/10/26 11:39:23;;;;;;;;;;;;;;;;;;5119001;27;20394;-46
2023/10/26 11:41:49;;;;;;;;;;;;;;;;;;5118673;27;19973;-45
2023/10/26 11:44:14;;;;;;;;;;;;;;;;;;5128308;27;20363;-48
2023/10/26 11:46:40;;;;;;;;;;;;;;;;;;5126675;27;20517;-45
2023/10/26 11:49:05;;;;;;;;;;;;;;;;;;5123242;27;20313;-44
2023/10/26 11:51:31;;;;;;;;;;;;;;;;;;5126132;27;20473;-45
2023/10/26 11:53:56;;;;;;;;;;;;;;;;;;5124508;27;19941;-45
2023/10/26 11:56:22;;;;;;;;;;;;;;;;;;5123131;27;20856;-45
2023/10/26 11:58:47;;;;;;;;;;;;;;;;;;5126897;27;20350;-45
2023/10/26 12:01:13;;;;;;;;;;;;;;;;;;5117863;27;19935;-45
2023/10/26 12:03:38;;;;;;;;;;;;;;;;;;5124581;27;20509;-44
2023/10/26 12:06:04;;;;;;;;;;;;;;;;;;5124943;27;19927;-44
2023/10/26 12:08:29;;;;;;;;;;;;;;;;;;5123863;27;19931;-46
2023/10/26 12:10:55;;;;;;;;;;;;;;;;;;5124037;27;19930;-44
2023/10/26 12:13:20;;;;;;;;;;;;;;;;;;5121644;27;20337;-45
2023/10/26 12:15:45;;;;;;;;;;;;;;;;;;5121536;27;19927;-43
2023/10/26 12:18:11;;;;;;;;;;;;;;;;;;5122275;27;20015;-44
2023/10/26 12:20:37;;;;;;;;;;;;;;;;;;5127210;27;19966;-44
2023/10/26 12:23:02;;;;;;;;;;;;;;;;;;5120579;27;19931;-45
2023/10/26 12:25:28;;;;;;;;;;;;;;;;;;5116674;27;19931;-44
2023/10/26 12:27:54;;;;;;;;;;;;;;;;;;5117311;27;20339;-45
2023/10/26 12:30:39;;;;;;;;;;;;;;;;;;5090499;27;21017;-45
2023/10/26 12:33:05;;;;;;;;;;;;;;;;;;5103178;27;19931;-44
2023/10/26 12:35:30;;;;;;;;;;;;;;;;;;5103744;27;19933;-46
2023/10/26 12:37:56;;;;;;;;;;;;;;;;;;5109457;27;19984;-45
2023/10/26 12:40:22;;;;;;;;;;;;;;;;;;5110684;27;20319;-46
2023/10/26 12:42:47;;;;;;;;;;;;;;;;;;5113160;27;20474;-44
2023/10/26 12:45:14;;;;;;;;;;;;;;;;;;5032707;28;20716;-43
2023/10/26 12:47:39;;;;;;;;;;;;;;;;;;5035140;28;20480;-46
2023/10/26 12:50:05;;;;;;;;;;;;;;;;;;5038499;28;19925;-44
2023/10/26 12:52:30;;;;;;;;;;;;;;;;;;5040304;28;19934;-47
2023/10/26 12:54:56;;;;;;;;;;;;;;;;;;5039490;28;20324;-46
2023/10/26 12:57:21;;;;;;;;;;;;;;;;;;5033112;28;20050;-46
2023/10/26 12:59:47;;;;;;;;;;;;;;;;;;5036371;28;20048;-46
2023/10/26 13:02:12;;;;;;;;;;;;;;;;;;5039341;27;19933;-45
2023/10/26 13:04:37;;;;;;;;;;;;;;;;;;5124251;27;20186;-44
2023/10/26 13:07:03;;;;;;;;;;;;;;;;;;5129250;27;20366;-44
2023/10/26 13:09:28;;;;;;;;;;;;;;;;;;5126573;27;19950;-44
2023/10/26 13:11:54;;;;;;;;;;;;;;;;;;5122952;27;20115;-43
2023/10/26 13:14:20;;;;;;;;;;;;;;;;;;5119726;27;20272;-44
2023/10/26 13:16:45;;;;;;;;;;;;;;;;;;5119924;27;20243;-46
2023/10/26 13:19:15;;;;;;;;;;;;;;;;;;5121575;27;19934;-43
2023/10/26 13:21:41;;;;;;;;;;;;;;;;;;5122841;27;19967;-45
2023/10/26 13:24:06;;;;;;;;;;;;;;;;;;5123684;27;19937;-46
2023/10/26 13:26:32;;;;;;;;;;;;;;;;;;5120618;27;19980;-43
2023/10/26 13:28:57;;;;;;;;;;;;;;;;;;5120360;27;19927;-44
2023/10/26 13:31:23;;;;;;;;;;;;;;;;;;5126881;27;19942;-44
2023/10/26 13:33:48;;;;;;;;;;;;;;;;;;5114792;27;20395;-44
2023/10/26 13:36:14;;;;;;;;;;;;;;;;;;5122785;27;20294;-45
2023/10/26 13:38:39;;;;;;;;;;;;;;;;;;5122272;27;20322;-44
2023/10/26 13:41:04;;;;;;;;;;;;;;;;;;5135734;27;19923;-44
2023/10/26 13:43:30;;;;;;;;;;;;;;;;;;5138558;27;19926;-46
2023/10/26 13:45:55;;;;;;;;;;;;;;;;;;5125749;27;19976;-45
2023/10/26 13:48:21;;;;;;;;;;;;;;;;;;5132032;27;20006;-47
2023/10/26 13:50:46;;;;;;;;;;;;;;;;;;5143650;27;19923;-47
2023/10/26 13:53:26;;;;;;;;;;;;;;;;;;5109942;27;19923;-46
2023/10/26 13:55:53;;;;;;;;;;;;;;;;;;5126716;27;20254;-46
2023/10/26 13:58:18;;;;;;;;;;;;;;;;;;5135805;27;19959;-44
2023/10/26 14:00:44;;;;;;;;;;;;;;;;;;5127291;27;19927;-43
2023/10/26 14:03:09;;;;;;;;;;;;;;;;;;5126721;27;20276;-44
2023/10/26 14:05:37;;;;;;;;;;;;;;;;;;5138985;27;19924;-46
2023/10/26 14:08:03;;;;;;;;;;;;;;;;;;5138575;27;20000;-43
2023/10/26 14:10:28;;;;;;;;;;;;;;;;;;5147064;27;20340;-43
2023/10/26 14:12:54;;;;;;;;;;;;;;;;;;5127612;27;20442;-44
2023/10/26 14:15:19;;;;;;;;;;;;;;;;;;5128855;27;19927;-43
2023/10/26 14:17:45;;;;;;;;;;;;;;;;;;5127632;27;20356;-44
2023/10/26 14:20:10;;;;;;;;;;;;;;;;;;5147617;27;20014;-45
2023/10/26 14:22:36;;;;;;;;;;;;;;;;;;5129946;27;19973;-44
2023/10/26 14:25:01;;;;;;;;;;;;;;;;;;5125909;27;20391;-44
2023/10/26 14:27:27;;;;;;;;;;;;;;;;;;5125985;27;19966;-46
2023/10/26 14:29:52;;;;;;;;;;;;;;;;;;5129126;27;19934;-45
2023/10/26 14:32:18;;;;;;;;;;;;;;;;;;5128318;27;20034;-44
2023/10/26 14:34:43;;;;;;;;;;;;;;;;;;5125283;27;20232;-44
2023/10/26 14:37:09;;;;;;;;;;;;;;;;;;5129658;27;20383;-45
2023/10/26 14:39:34;;;;;;;;;;;;;;;;;;5144529;27;20438;-44
2023/10/26 14:42:00;;;;;;;;;;;;;;;;;;5137187;27;19967;-45
2023/10/26 14:44:25;;;;;;;;;;;;;;;;;;5134719;27;20009;-44
2023/10/26 14:46:51;;;;;;;;;;;;;;;;;;5131641;27;20076;-44
2023/10/26 14:49:16;;;;;;;;;;;;;;;;;;5141994;27;19927;-44
2023/10/26 14:51:44;;;;;;;;;;;;;;;;;;5134014;27;20061;-44
2023/10/26 14:54:09;;;;;;;;;;;;;;;;;;5140978;27;19976;-44
2023/10/26 14:56:35;;;;;;;;;;;;;;;;;;5146724;27;20068;-46
2023/10/26 14:59:01;;;;;;;;;;;;;;;;;;5146509;27;20482;-44
2023/10/26 15:01:26;;;;;;;;;;;;;;;;;;5140207;27;20001;-44
2023/10/26 15:03:52;;;;;;;;;;;;;;;;;;5146132;27;20365;-43
2023/10/26 15:06:17;;;;;;;;;;;;;;;;;;5142694;27;19923;-43
2023/10/26 15:08:43;;;;;;;;;;;;;;;;;;5146769;27;19974;-43
2023/10/26 15:11:08;;;;;;;;;;;;;;;;;;5141064;27;19931;-44
2023/10/26 15:13:48;;;;;;;;;;;;;;;;;;5131293;27;19931;-45
2023/10/26 15:16:14;;;;;;;;;;;;;;;;;;5142404;27;20427;-45
2023/10/26 15:18:39;;;;;;;;;;;;;;;;;;5146552;27;19935;-45
2023/10/26 15:21:05;;;;;;;;;;;;;;;;;;5146807;27;20006;-45
2023/10/26 15:23:30;;;;;;;;;;;;;;;;;;5144694;27;20418;-45
2023/10/26 15:25:58;;;;;;;;;;;;;;;;;;5149526;27;20545;-45
2023/10/26 15:28:23;;;;;;;;;;;;;;;;;;5143883;27;20017;-44
2023/10/26 15:30:48;;;;;;;;;;;;;;;;;;5138683;27;19935;-44
2023/10/26 15:33:14;;;;;;;;;;;;;;;;;;5137188;27;20006;-44
2023/10/26 15:35:39;;;;;;;;;;;;;;;;;;5151298;27;20401;-43
2023/10/26 15:38:05;;;;;;;;;;;;;;;;;;5150470;27;19923;-43
2023/10/26 15:40:30;;;;;;;;;;;;;;;;;;5136185;27;20332;-45
2023/10/26 15:42:56;;;;;;;;;;;;;;;;;;5132012;27;20006;-46
2023/10/26 15:45:21;;;;;;;;;;;;;;;;;;5136593;27;20022;-44
2023/10/26 15:47:47;;;;;;;;;;;;;;;;;;5138296;27;20341;-46
2023/10/26 15:50:12;;;;;;;;;;;;;;;;;;5142540;27;19930;-43
2023/10/26 15:52:38;;;;;;;;;;;;;;;;;;5138410;27;20399;-44
2023/10/26 15:55:03;;;;;;;;;;;;;;;;;;5145410;27;20004;-46
2023/10/26 15:57:31;;;;;;;;;;;;;;;;;;5151325;27;19927;-44
2023/10/26 15:59:56;;;;;;;;;;;;;;;;;;5145411;27;19967;-44
2023/10/26 16:02:22;;;;;;;;;;;;;;;;;;5141917;27;19924;-45
2023/10/26 16:04:49;;;;;;;;;;;;;;;;;;5138975;27;20272;-46
2023/10/26 16:07:14;;;;;;;;;;;;;;;;;;5145148;27;20385;-45
2023/10/26 16:09:40;;;;;;;;;;;;;;;;;;5140105;27;19938;-43
2023/10/26 16:12:05;;;;;;;;;;;;;;;;;;5143683;27;20345;-44
2023/10/26 16:14:31;;;;;;;;;;;;;;;;;;5148526;27;19927;-45
2023/10/26 16:16:56;;;;;;;;;;;;;;;;;;5142718;27;20375;-44
2023/10/26 16:19:26;;;;;;;;;;;;;;;;;;5144690;27;20411;-43
2023/10/26 16:21:51;;;;;;;;;;;;;;;;;;5144583;27;19977;-44
2023/10/26 16:24:17;;;;;;;;;;;;;;;;;;5130843;27;19959;-48
2023/10/26 16:26:43;;;;;;;;;;;;;;;;;;5141937;27;19924;-45
2023/10/26 16:29:08;;;;;;;;;;;;;;;;;;5139547;27;20363;-44
2023/10/26 16:31:34;;;;;;;;;;;;;;;;;;5139558;27;20018;-45
2023/10/26 16:34:00;;;;;;;;;;;;;;;;;;5139141;27;20158;-44
2023/10/26 16:36:26;;;;;;;;;;;;;;;;;;5150135;27;19924;-47